sensor_id;sensor_type;location;lat;lon;timestamp;P1;durP1;ratioP1;P2;durP2;ratioP2
47403;SDS011;33157;51.508;4.288;2022-07-10T00:04:51;9.65;;;1.45;;
47403;SDS011;33157;51.508;4.288;2022-07-10T00:09:51;4.57;;;1.35;;
47403;SDS011;33157;51.508;4.288;2022-07-10T00:14:52;5.60;;;1.08;;
47403;SDS011;33157;51.508;4.288;2022-07-10T00:19:53;3.92;;;1.38;;
47403;SDS011;33157;51.508;4.288;2022-07-10T00:24:53;3.92;;;1.33;;
47403;SDS011;33157;51.508;4.288;2022-07-10T00:29:54;3.65;;;1.38;;
47403;SDS011;33157;51.508;4.288;2022-07-10T00:34:55;6.85;;;1.45;;
47403;SDS011;33157;51.508;4.288;2022-07-10T00:39:56;7.70;;;1.30;;
47403;SDS011;33157;51.508;4.288;2022-07-10T00:44:56;6.95;;;1.20;;
47403;SDS011;33157;51.508;4.288;2022-07-10T00:49:57;5.72;;;1.77;;
47403;SDS011;33157;51.508;4.288;2022-07-10T00:54:58;4.28;;;1.13;;
47403;SDS011;33157;51.508;4.288;2022-07-10T00:59:58;5.65;;;2.10;;
47403;SDS011;33157;51.508;4.288;2022-07-10T01:04:59;4.80;;;1.33;;
47403;SDS011;33157;51.508;4.288;2022-07-10T01:10:00;4.93;;;1.90;;
47403;SDS011;33157;51.508;4.288;2022-07-10T01:15:02;6.15;;;2.03;;
47403;SDS011;33157;51.508;4.288;2022-07-10T01:20:06;3.55;;;1.40;;
47403;SDS011;33157;51.508;4.288;2022-07-10T01:25:08;4.60;;;1.48;;
47403;SDS011;33157;51.508;4.288;2022-07-10T01:30:11;5.35;;;1.40;;
47403;SDS011;33157;51.508;4.288;2022-07-10T01:35:11;9.85;;;1.65;;
47403;SDS011;33157;51.508;4.288;2022-07-10T01:40:12;5.80;;;1.35;;
47403;SDS011;33157;51.508;4.288;2022-07-10T01:45:15;3.92;;;1.50;;
47403;SDS011;33157;51.508;4.288;2022-07-10T01:50:17;7.22;;;1.65;;
47403;SDS011;33157;51.508;4.288;2022-07-10T01:55:18;5.90;;;1.80;;
47403;SDS011;33157;51.508;4.288;2022-07-10T02:00:18;5.65;;;2.13;;
47403;SDS011;33157;51.508;4.288;2022-07-10T02:05:19;6.82;;;1.95;;
47403;SDS011;33157;51.508;4.288;2022-07-10T02:10:20;7.65;;;2.20;;
47403;SDS011;33157;51.508;4.288;2022-07-10T02:15:20;8.82;;;2.67;;
47403;SDS011;33157;51.508;4.288;2022-07-10T02:20:21;4.93;;;1.58;;
47403;SDS011;33157;51.508;4.288;2022-07-10T02:25:22;4.68;;;2.05;;
47403;SDS011;33157;51.508;4.288;2022-07-10T02:30:23;5.85;;;2.03;;
47403;SDS011;33157;51.508;4.288;2022-07-10T02:35:24;3.75;;;1.63;;
47403;SDS011;33157;51.508;4.288;2022-07-10T02:40:25;7.22;;;2.10;;
47403;SDS011;33157;51.508;4.288;2022-07-10T02:45:25;6.13;;;1.83;;
47403;SDS011;33157;51.508;4.288;2022-07-10T02:50:26;9.18;;;1.80;;
47403;SDS011;33157;51.508;4.288;2022-07-10T02:55:26;10.95;;;1.90;;
47403;SDS011;33157;51.508;4.288;2022-07-10T03:00:27;6.97;;;1.60;;
47403;SDS011;33157;51.508;4.288;2022-07-10T03:05:28;5.95;;;2.05;;
47403;SDS011;33157;51.508;4.288;2022-07-10T03:10:29;6.82;;;1.88;;
47403;SDS011;33157;51.508;4.288;2022-07-10T03:15:29;5.22;;;1.83;;
47403;SDS011;33157;51.508;4.288;2022-07-10T03:20:30;7.07;;;1.58;;
47403;SDS011;33157;51.508;4.288;2022-07-10T03:25:31;7.30;;;2.10;;
47403;SDS011;33157;51.508;4.288;2022-07-10T03:30:31;7.10;;;1.80;;
47403;SDS011;33157;51.508;4.288;2022-07-10T03:35:33;5.90;;;1.70;;
47403;SDS011;33157;51.508;4.288;2022-07-10T03:40:34;6.00;;;1.80;;
47403;SDS011;33157;51.508;4.288;2022-07-10T03:45:35;8.70;;;2.70;;
47403;SDS011;33157;51.508;4.288;2022-07-10T03:50:35;5.13;;;2.00;;
47403;SDS011;33157;51.508;4.288;2022-07-10T03:55:36;9.20;;;2.20;;
47403;SDS011;33157;51.508;4.288;2022-07-10T04:00:36;16.90;;;5.35;;
47403;SDS011;33157;51.508;4.288;2022-07-10T04:05:38;20.43;;;6.57;;
47403;SDS011;33157;51.508;4.288;2022-07-10T04:10:39;12.15;;;3.58;;
47403;SDS011;33157;51.508;4.288;2022-07-10T04:15:40;5.28;;;2.40;;
47403;SDS011;33157;51.508;4.288;2022-07-10T04:20:41;8.00;;;2.50;;
47403;SDS011;33157;51.508;4.288;2022-07-10T04:25:42;7.95;;;2.88;;
47403;SDS011;33157;51.508;4.288;2022-07-10T04:30:43;7.10;;;2.63;;
47403;SDS011;33157;51.508;4.288;2022-07-10T04:35:44;12.75;;;3.25;;
47403;SDS011;33157;51.508;4.288;2022-07-10T04:40:44;10.00;;;3.55;;
47403;SDS011;33157;51.508;4.288;2022-07-10T04:45:45;9.20;;;2.53;;
47403;SDS011;33157;51.508;4.288;2022-07-10T04:50:48;6.63;;;1.83;;
47403;SDS011;33157;51.508;4.288;2022-07-10T04:55:49;6.35;;;1.50;;
47403;SDS011;33157;51.508;4.288;2022-07-10T05:00:50;6.07;;;1.92;;
47403;SDS011;33157;51.508;4.288;2022-07-10T05:05:50;4.60;;;1.40;;
47403;SDS011;33157;51.508;4.288;2022-07-10T05:10:51;4.97;;;1.52;;
47403;SDS011;33157;51.508;4.288;2022-07-10T05:15:52;6.10;;;1.48;;
47403;SDS011;33157;51.508;4.288;2022-07-10T05:20:52;6.57;;;1.73;;
47403;SDS011;33157;51.508;4.288;2022-07-10T05:25:53;4.85;;;1.65;;
47403;SDS011;33157;51.508;4.288;2022-07-10T05:30:54;4.55;;;1.27;;
47403;SDS011;33157;51.508;4.288;2022-07-10T05:35:55;4.85;;;1.40;;
47403;SDS011;33157;51.508;4.288;2022-07-10T05:40:55;6.13;;;1.27;;
47403;SDS011;33157;51.508;4.288;2022-07-10T05:45:56;19.67;;;1.83;;
47403;SDS011;33157;51.508;4.288;2022-07-10T05:50:57;6.55;;;1.50;;
47403;SDS011;33157;51.508;4.288;2022-07-10T05:56:01;5.60;;;1.60;;
47403;SDS011;33157;51.508;4.288;2022-07-10T06:01:02;10.38;;;1.60;;
47403;SDS011;33157;51.508;4.288;2022-07-10T06:06:03;11.20;;;2.25;;
47403;SDS011;33157;51.508;4.288;2022-07-10T06:11:03;10.98;;;2.45;;
47403;SDS011;33157;51.508;4.288;2022-07-10T06:16:04;10.13;;;2.40;;
47403;SDS011;33157;51.508;4.288;2022-07-10T06:21:05;6.70;;;1.52;;
47403;SDS011;33157;51.508;4.288;2022-07-10T06:26:06;6.07;;;1.95;;
47403;SDS011;33157;51.508;4.288;2022-07-10T06:31:07;5.25;;;1.60;;
47403;SDS011;33157;51.508;4.288;2022-07-10T06:36:08;5.20;;;1.33;;
47403;SDS011;33157;51.508;4.288;2022-07-10T06:41:12;7.18;;;1.30;;
47403;SDS011;33157;51.508;4.288;2022-07-10T06:46:13;6.43;;;1.40;;
47403;SDS011;33157;51.508;4.288;2022-07-10T06:51:13;9.68;;;1.38;;
47403;SDS011;33157;51.508;4.288;2022-07-10T06:56:14;6.03;;;1.13;;
47403;SDS011;33157;51.508;4.288;2022-07-10T07:01:16;5.65;;;1.42;;
47403;SDS011;33157;51.508;4.288;2022-07-10T07:06:16;4.32;;;1.30;;
47403;SDS011;33157;51.508;4.288;2022-07-10T07:11:17;4.68;;;1.15;;
47403;SDS011;33157;51.508;4.288;2022-07-10T07:16:18;6.25;;;1.27;;
47403;SDS011;33157;51.508;4.288;2022-07-10T07:21:20;6.95;;;1.48;;
47403;SDS011;33157;51.508;4.288;2022-07-10T07:26:39;4.78;;;1.40;;
47403;SDS011;33157;51.508;4.288;2022-07-10T07:31:40;10.57;;;1.38;;
47403;SDS011;33157;51.508;4.288;2022-07-10T07:36:40;4.30;;;1.40;;
47403;SDS011;33157;51.508;4.288;2022-07-10T07:41:41;3.90;;;1.40;;
47403;SDS011;33157;51.508;4.288;2022-07-10T07:46:41;4.47;;;1.20;;
47403;SDS011;33157;51.508;4.288;2022-07-10T07:51:42;3.47;;;1.10;;
47403;SDS011;33157;51.508;4.288;2022-07-10T07:56:43;5.28;;;1.35;;
47403;SDS011;33157;51.508;4.288;2022-07-10T08:01:43;9.27;;;1.52;;
47403;SDS011;33157;51.508;4.288;2022-07-10T08:06:45;5.90;;;1.40;;
47403;SDS011;33157;51.508;4.288;2022-07-10T08:11:45;4.70;;;1.38;;
47403;SDS011;33157;51.508;4.288;2022-07-10T08:16:46;4.60;;;1.70;;
47403;SDS011;33157;51.508;4.288;2022-07-10T08:21:47;5.20;;;1.27;;
47403;SDS011;33157;51.508;4.288;2022-07-10T08:26:47;5.55;;;1.15;;
47403;SDS011;33157;51.508;4.288;2022-07-10T08:31:48;8.05;;;1.95;;
47403;SDS011;33157;51.508;4.288;2022-07-10T08:36:48;5.07;;;1.77;;
47403;SDS011;33157;51.508;4.288;2022-07-10T08:41:49;3.47;;;0.82;;
47403;SDS011;33157;51.508;4.288;2022-07-10T08:46:50;6.25;;;1.17;;
47403;SDS011;33157;51.508;4.288;2022-07-10T08:51:58;3.10;;;0.82;;
47403;SDS011;33157;51.508;4.288;2022-07-10T08:57:02;3.25;;;1.00;;
47403;SDS011;33157;51.508;4.288;2022-07-10T09:02:03;5.53;;;1.20;;
47403;SDS011;33157;51.508;4.288;2022-07-10T09:07:04;4.00;;;1.15;;
47403;SDS011;33157;51.508;4.288;2022-07-10T09:12:04;3.13;;;1.30;;
47403;SDS011;33157;51.508;4.288;2022-07-10T09:17:05;6.78;;;1.33;;
47403;SDS011;33157;51.508;4.288;2022-07-10T09:22:06;6.32;;;2.65;;
47403;SDS011;33157;51.508;4.288;2022-07-10T09:32:09;6.97;;;1.30;;
47403;SDS011;33157;51.508;4.288;2022-07-10T09:37:19;2.85;;;1.00;;
47403;SDS011;33157;51.508;4.288;2022-07-10T09:42:54;5.37;;;1.10;;
47403;SDS011;33157;51.508;4.288;2022-07-10T09:47:55;4.47;;;1.35;;
47403;SDS011;33157;51.508;4.288;2022-07-10T09:52:58;6.63;;;1.20;;
47403;SDS011;33157;51.508;4.288;2022-07-10T09:58:00;4.15;;;1.30;;
47403;SDS011;33157;51.508;4.288;2022-07-10T10:03:06;3.67;;;0.98;;
47403;SDS011;33157;51.508;4.288;2022-07-10T10:13:12;3.30;;;0.98;;
47403;SDS011;33157;51.508;4.288;2022-07-10T10:18:18;3.05;;;1.20;;
47403;SDS011;33157;51.508;4.288;2022-07-10T10:23:21;6.07;;;0.90;;
47403;SDS011;33157;51.508;4.288;2022-07-10T10:28:23;3.83;;;0.98;;
47403;SDS011;33157;51.508;4.288;2022-07-10T10:39:15;5.70;;;1.13;;
47403;SDS011;33157;51.508;4.288;2022-07-10T10:49:08;2.58;;;1.02;;
47403;SDS011;33157;51.508;4.288;2022-07-10T10:54:09;4.32;;;1.60;;
47403;SDS011;33157;51.508;4.288;2022-07-10T10:59:10;6.78;;;1.58;;
47403;SDS011;33157;51.508;4.288;2022-07-10T11:09:33;4.05;;;1.20;;
47403;SDS011;33157;51.508;4.288;2022-07-10T11:14:35;4.22;;;1.00;;
47403;SDS011;33157;51.508;4.288;2022-07-10T11:19:40;5.80;;;1.45;;
47403;SDS011;33157;51.508;4.288;2022-07-10T11:30:03;4.97;;;1.25;;
47403;SDS011;33157;51.508;4.288;2022-07-10T11:35:13;5.53;;;0.93;;
47403;SDS011;33157;51.508;4.288;2022-07-10T11:40:14;3.55;;;0.90;;
47403;SDS011;33157;51.508;4.288;2022-07-10T11:50:26;3.33;;;1.10;;
47403;SDS011;33157;51.508;4.288;2022-07-10T11:55:27;6.03;;;1.13;;
47403;SDS011;33157;51.508;4.288;2022-07-10T12:00:29;4.22;;;1.00;;
47403;SDS011;33157;51.508;4.288;2022-07-10T12:05:35;3.23;;;0.77;;
47403;SDS011;33157;51.508;4.288;2022-07-10T12:10:37;5.40;;;1.10;;
47403;SDS011;33157;51.508;4.288;2022-07-10T12:15:42;3.28;;;0.80;;
47403;SDS011;33157;51.508;4.288;2022-07-10T12:20:48;3.78;;;0.80;;
47403;SDS011;33157;51.508;4.288;2022-07-10T12:25:50;2.20;;;0.82;;
47403;SDS011;33157;51.508;4.288;2022-07-10T12:30:51;3.72;;;0.98;;
47403;SDS011;33157;51.508;4.288;2022-07-10T12:35:55;3.38;;;1.05;;
47403;SDS011;33157;51.508;4.288;2022-07-10T12:46:11;3.17;;;0.90;;
47403;SDS011;33157;51.508;4.288;2022-07-10T12:51:22;5.47;;;1.48;;
47403;SDS011;33157;51.508;4.288;2022-07-10T12:56:27;2.50;;;0.95;;
47403;SDS011;33157;51.508;4.288;2022-07-10T13:01:41;4.72;;;1.10;;
47403;SDS011;33157;51.508;4.288;2022-07-10T13:06:43;4.38;;;1.30;;
47403;SDS011;33157;51.508;4.288;2022-07-10T13:16:46;2.55;;;1.10;;
47403;SDS011;33157;51.508;4.288;2022-07-10T13:21:48;7.07;;;4.80;;
47403;SDS011;33157;51.508;4.288;2022-07-10T13:26:48;4.40;;;0.90;;
47403;SDS011;33157;51.508;4.288;2022-07-10T13:31:50;5.97;;;1.03;;
47403;SDS011;33157;51.508;4.288;2022-07-10T13:36:50;4.07;;;0.70;;
47403;SDS011;33157;51.508;4.288;2022-07-10T13:41:51;2.97;;;0.80;;
47403;SDS011;33157;51.508;4.288;2022-07-10T13:46:52;3.63;;;0.80;;
47403;SDS011;33157;51.508;4.288;2022-07-10T13:51:52;3.47;;;0.90;;
47403;SDS011;33157;51.508;4.288;2022-07-10T13:56:53;3.37;;;0.77;;
47403;SDS011;33157;51.508;4.288;2022-07-10T14:01:54;2.23;;;0.70;;
47403;SDS011;33157;51.508;4.288;2022-07-10T14:06:54;2.03;;;0.73;;
47403;SDS011;33157;51.508;4.288;2022-07-10T14:11:55;4.23;;;0.83;;
47403;SDS011;33157;51.508;4.288;2022-07-10T14:16:56;7.20;;;2.10;;
47403;SDS011;33157;51.508;4.288;2022-07-10T14:21:56;2.30;;;1.00;;
47403;SDS011;33157;51.508;4.288;2022-07-10T14:26:58;3.17;;;0.95;;
47403;SDS011;33157;51.508;4.288;2022-07-10T14:31:58;2.03;;;0.80;;
47403;SDS011;33157;51.508;4.288;2022-07-10T14:36:59;4.87;;;1.10;;
47403;SDS011;33157;51.508;4.288;2022-07-10T14:42:01;1.77;;;0.70;;
47403;SDS011;33157;51.508;4.288;2022-07-10T14:47:02;21.43;;;9.90;;
47403;SDS011;33157;51.508;4.288;2022-07-10T14:52:03;10.15;;;5.75;;
47403;SDS011;33157;51.508;4.288;2022-07-10T14:57:05;6.00;;;2.92;;
47403;SDS011;33157;51.508;4.288;2022-07-10T15:02:05;6.30;;;2.20;;
47403;SDS011;33157;51.508;4.288;2022-07-10T15:07:06;15.43;;;13.63;;
47403;SDS011;33157;51.508;4.288;2022-07-10T15:12:06;5.83;;;1.33;;
47403;SDS011;33157;51.508;4.288;2022-07-10T15:17:08;3.03;;;1.50;;
47403;SDS011;33157;51.508;4.288;2022-07-10T15:22:08;3.83;;;1.00;;
47403;SDS011;33157;51.508;4.288;2022-07-10T15:27:09;2.57;;;1.00;;
47403;SDS011;33157;51.508;4.288;2022-07-10T15:32:10;4.30;;;1.50;;
47403;SDS011;33157;51.508;4.288;2022-07-10T15:37:12;7.80;;;4.57;;
47403;SDS011;33157;51.508;4.288;2022-07-10T15:42:14;34.30;;;19.57;;
47403;SDS011;33157;51.508;4.288;2022-07-10T15:47:25;53.78;;;41.47;;
47403;SDS011;33157;51.508;4.288;2022-07-10T15:52:25;41.67;;;36.90;;
47403;SDS011;33157;51.508;4.288;2022-07-10T15:57:26;122.97;;;110.00;;
47403;SDS011;33157;51.508;4.288;2022-07-10T16:02:27;87.77;;;78.50;;
47403;SDS011;33157;51.508;4.288;2022-07-10T16:07:27;158.43;;;141.40;;
47403;SDS011;33157;51.508;4.288;2022-07-10T16:12:28;71.70;;;59.40;;
47403;SDS011;33157;51.508;4.288;2022-07-10T16:17:28;29.97;;;20.80;;
47403;SDS011;33157;51.508;4.288;2022-07-10T16:22:29;30.47;;;16.47;;
47403;SDS011;33157;51.508;4.288;2022-07-10T16:27:30;3.23;;;1.20;;
47403;SDS011;33157;51.508;4.288;2022-07-10T16:32:31;4.40;;;1.20;;
47403;SDS011;33157;51.508;4.288;2022-07-10T16:37:31;3.80;;;1.57;;
47403;SDS011;33157;51.508;4.288;2022-07-10T16:42:32;7.80;;;1.90;;
47403;SDS011;33157;51.508;4.288;2022-07-10T16:47:33;5.83;;;2.10;;
47403;SDS011;33157;51.508;4.288;2022-07-10T16:52:33;3.87;;;1.10;;
47403;SDS011;33157;51.508;4.288;2022-07-10T16:57:37;3.50;;;1.10;;
47403;SDS011;33157;51.508;4.288;2022-07-10T17:02:38;3.07;;;1.23;;
47403;SDS011;33157;51.508;4.288;2022-07-10T17:07:40;3.80;;;1.42;;
47403;SDS011;33157;51.508;4.288;2022-07-10T17:12:41;4.00;;;1.50;;
47403;SDS011;33157;51.508;4.288;2022-07-10T17:17:42;2.38;;;1.20;;
47403;SDS011;33157;51.508;4.288;2022-07-10T17:22:43;7.57;;;1.67;;
47403;SDS011;33157;51.508;4.288;2022-07-10T17:27:46;4.65;;;1.50;;
47403;SDS011;33157;51.508;4.288;2022-07-10T17:32:47;3.22;;;1.20;;
47403;SDS011;33157;51.508;4.288;2022-07-10T17:37:51;5.25;;;1.40;;
47403;SDS011;33157;51.508;4.288;2022-07-10T17:42:55;2.33;;;1.02;;
47403;SDS011;33157;51.508;4.288;2022-07-10T17:47:58;4.53;;;1.00;;
47403;SDS011;33157;51.508;4.288;2022-07-10T17:52:59;3.13;;;1.70;;
47403;SDS011;33157;51.508;4.288;2022-07-10T17:57:59;4.95;;;1.35;;
47403;SDS011;33157;51.508;4.288;2022-07-10T18:03:00;10.88;;;1.50;;
47403;SDS011;33157;51.508;4.288;2022-07-10T18:08:01;3.97;;;1.95;;
47403;SDS011;33157;51.508;4.288;2022-07-10T18:13:01;3.88;;;1.50;;
47403;SDS011;33157;51.508;4.288;2022-07-10T18:18:03;6.15;;;1.40;;
47403;SDS011;33157;51.508;4.288;2022-07-10T18:23:03;4.20;;;1.50;;
47403;SDS011;33157;51.508;4.288;2022-07-10T18:28:05;3.00;;;1.50;;
47403;SDS011;33157;51.508;4.288;2022-07-10T18:33:07;5.25;;;1.77;;
47403;SDS011;33157;51.508;4.288;2022-07-10T18:38:26;6.47;;;1.40;;
47403;SDS011;33157;51.508;4.288;2022-07-10T18:43:31;4.13;;;1.63;;
47403;SDS011;33157;51.508;4.288;2022-07-10T18:48:32;2.92;;;1.63;;
47403;SDS011;33157;51.508;4.288;2022-07-10T18:53:33;4.35;;;1.60;;
47403;SDS011;33157;51.508;4.288;2022-07-10T18:58:33;5.75;;;1.70;;
47403;SDS011;33157;51.508;4.288;2022-07-10T19:03:35;6.30;;;1.70;;
47403;SDS011;33157;51.508;4.288;2022-07-10T19:08:36;6.32;;;2.38;;
47403;SDS011;33157;51.508;4.288;2022-07-10T19:13:37;8.10;;;2.33;;
47403;SDS011;33157;51.508;4.288;2022-07-10T19:18:40;6.38;;;1.90;;
47403;SDS011;33157;51.508;4.288;2022-07-10T19:23:45;3.75;;;1.73;;
47403;SDS011;33157;51.508;4.288;2022-07-10T19:28:49;5.25;;;2.08;;
47403;SDS011;33157;51.508;4.288;2022-07-10T19:33:52;3.30;;;1.52;;
47403;SDS011;33157;51.508;4.288;2022-07-10T19:39:05;5.53;;;1.77;;
47403;SDS011;33157;51.508;4.288;2022-07-10T19:44:06;7.05;;;1.92;;
47403;SDS011;33157;51.508;4.288;2022-07-10T19:49:06;5.60;;;1.90;;
47403;SDS011;33157;51.508;4.288;2022-07-10T19:54:08;5.45;;;1.60;;
47403;SDS011;33157;51.508;4.288;2022-07-10T19:59:09;5.63;;;1.77;;
47403;SDS011;33157;51.508;4.288;2022-07-10T20:04:10;6.68;;;1.70;;
47403;SDS011;33157;51.508;4.288;2022-07-10T20:09:11;11.97;;;2.30;;
47403;SDS011;33157;51.508;4.288;2022-07-10T20:14:12;8.10;;;2.03;;
47403;SDS011;33157;51.508;4.288;2022-07-10T20:19:13;5.65;;;2.15;;
47403;SDS011;33157;51.508;4.288;2022-07-10T20:24:14;6.68;;;2.20;;
47403;SDS011;33157;51.508;4.288;2022-07-10T20:29:15;7.05;;;2.33;;
47403;SDS011;33157;51.508;4.288;2022-07-10T20:34:17;9.55;;;2.42;;
47403;SDS011;33157;51.508;4.288;2022-07-10T20:39:24;6.32;;;1.98;;
47403;SDS011;33157;51.508;4.288;2022-07-10T20:44:24;5.88;;;2.33;;
47403;SDS011;33157;51.508;4.288;2022-07-10T20:49:28;9.52;;;4.90;;
47403;SDS011;33157;51.508;4.288;2022-07-10T20:54:29;4.75;;;1.70;;
47403;SDS011;33157;51.508;4.288;2022-07-10T20:59:29;4.88;;;2.53;;
47403;SDS011;33157;51.508;4.288;2022-07-10T21:04:30;7.38;;;3.35;;
47403;SDS011;33157;51.508;4.288;2022-07-10T21:09:30;9.40;;;2.35;;
47403;SDS011;33157;51.508;4.288;2022-07-10T21:14:31;5.20;;;2.20;;
47403;SDS011;33157;51.508;4.288;2022-07-10T21:19:32;6.82;;;2.63;;
47403;SDS011;33157;51.508;4.288;2022-07-10T21:24:33;7.13;;;2.55;;
47403;SDS011;33157;51.508;4.288;2022-07-10T21:29:33;6.68;;;2.70;;
47403;SDS011;33157;51.508;4.288;2022-07-10T21:34:34;7.00;;;3.03;;
47403;SDS011;33157;51.508;4.288;2022-07-10T21:39:34;5.28;;;2.65;;
47403;SDS011;33157;51.508;4.288;2022-07-10T21:44:35;8.07;;;3.00;;
47403;SDS011;33157;51.508;4.288;2022-07-10T21:49:36;7.68;;;2.28;;
47403;SDS011;33157;51.508;4.288;2022-07-10T21:54:36;10.73;;;3.50;;
47403;SDS011;33157;51.508;4.288;2022-07-10T21:59:37;5.38;;;2.47;;
47403;SDS011;33157;51.508;4.288;2022-07-10T22:04:40;5.63;;;2.75;;
47403;SDS011;33157;51.508;4.288;2022-07-10T22:09:41;5.38;;;3.28;;
47403;SDS011;33157;51.508;4.288;2022-07-10T22:14:42;12.15;;;3.75;;
47403;SDS011;33157;51.508;4.288;2022-07-10T22:19:42;8.90;;;3.15;;
47403;SDS011;33157;51.508;4.288;2022-07-10T22:24:43;7.00;;;3.50;;
47403;SDS011;33157;51.508;4.288;2022-07-10T22:29:50;12.73;;;4.57;;
47403;SDS011;33157;51.508;4.288;2022-07-10T22:34:53;8.35;;;3.90;;
47403;SDS011;33157;51.508;4.288;2022-07-10T22:39:54;10.48;;;3.03;;
47403;SDS011;33157;51.508;4.288;2022-07-10T22:44:54;7.18;;;3.10;;
47403;SDS011;33157;51.508;4.288;2022-07-10T22:49:55;9.48;;;4.15;;
47403;SDS011;33157;51.508;4.288;2022-07-10T22:54:55;11.50;;;5.32;;
47403;SDS011;33157;51.508;4.288;2022-07-10T22:59:56;8.73;;;5.13;;
47403;SDS011;33157;51.508;4.288;2022-07-10T23:04:57;11.55;;;4.70;;
47403;SDS011;33157;51.508;4.288;2022-07-10T23:09:57;12.98;;;6.22;;
47403;SDS011;33157;51.508;4.288;2022-07-10T23:14:58;10.02;;;6.55;;
47403;SDS011;33157;51.508;4.288;2022-07-10T23:19:58;8.75;;;5.53;;
47403;SDS011;33157;51.508;4.288;2022-07-10T23:24:59;10.85;;;7.90;;
47403;SDS011;33157;51.508;4.288;2022-07-10T23:30:00;11.55;;;7.78;;
47403;SDS011;33157;51.508;4.288;2022-07-10T23:35:01;14.48;;;8.60;;
47403;SDS011;33157;51.508;4.288;2022-07-10T23:40:01;14.40;;;9.23;;
47403;SDS011;33157;51.508;4.288;2022-07-10T23:45:03;11.85;;;8.45;;
47403;SDS011;33157;51.508;4.288;2022-07-10T23:50:04;13.18;;;7.60;;
47403;SDS011;33157;51.508;4.288;2022-07-10T23:55:08;16.13;;;10.43;;
